Hamburg, Michigan
Current Conditions -  °F | °C
As of 5:55 PM on Tuesday 27 Jan 2015 (Local Time) from KOZW Reporting Station
Clear Clear  
Wind Chill: 11°   Ceiling: Unl
Heat Index: 20°   Visibility: 10mi
Dew Point: 10°   Wind: 7mph
Humidity: 66%   Direction: 350°N
Pressure: 30.18"   Gusts: NA
Location:  42.45°N, 83.8°W
Report Text: KOZW 272255Z AUTO 35006KT 10SM CLR M07/M12 A3018 RMK AO2 T10661120
Loading
Personal Weather Stations






























Interactive Weather Map New forecast layout! Learn more

10-Day Weather Forecast

Advertisements
Track Severe Weather on mobile